sensor_id;sensor_type;location;lat;lon;timestamp;P1;durP1;ratioP1;P2;durP2;ratioP2
4278;SDS011;2153;47.744;10.580;2024-02-28T00:01:02;32.60;;;15.80;;
4278;SDS011;2153;47.744;10.580;2024-02-28T00:03:29;32.00;;;15.20;;
4278;SDS011;2153;47.744;10.580;2024-02-28T00:05:57;32.87;;;15.80;;
4278;SDS011;2153;47.744;10.580;2024-02-28T00:08:24;34.63;;;15.27;;
4278;SDS011;2153;47.744;10.580;2024-02-28T00:10:52;38.23;;;16.80;;
4278;SDS011;2153;47.744;10.580;2024-02-28T00:13:19;35.03;;;16.33;;
4278;SDS011;2153;47.744;10.580;2024-02-28T00:15:48;31.87;;;15.23;;
4278;SDS011;2153;47.744;10.580;2024-02-28T00:18:15;34.27;;;16.30;;
4278;SDS011;2153;47.744;10.580;2024-02-28T00:20:43;33.03;;;16.20;;
4278;SDS011;2153;47.744;10.580;2024-02-28T00:23:10;35.70;;;15.80;;
4278;SDS011;2153;47.744;10.580;2024-02-28T00:25:37;31.70;;;15.50;;
4278;SDS011;2153;47.744;10.580;2024-02-28T00:28:06;29.90;;;14.20;;
4278;SDS011;2153;47.744;10.580;2024-02-28T00:30:33;32.60;;;16.10;;
4278;SDS011;2153;47.744;10.580;2024-02-28T00:33:00;34.40;;;14.87;;
4278;SDS011;2153;47.744;10.580;2024-02-28T00:35:28;32.50;;;16.60;;
4278;SDS011;2153;47.744;10.580;2024-02-28T00:37:55;32.83;;;16.27;;
4278;SDS011;2153;47.744;10.580;2024-02-28T00:40:22;35.13;;;16.57;;
4278;SDS011;2153;47.744;10.580;2024-02-28T00:42:50;33.03;;;15.40;;
4278;SDS011;2153;47.744;10.580;2024-02-28T00:45:19;36.80;;;15.77;;
4278;SDS011;2153;47.744;10.580;2024-02-28T00:47:46;39.53;;;15.03;;
4278;SDS011;2153;47.744;10.580;2024-02-28T00:50:13;36.23;;;16.93;;
4278;SDS011;2153;47.744;10.580;2024-02-28T00:52:40;34.87;;;16.60;;
4278;SDS011;2153;47.744;10.580;2024-02-28T00:55:07;33.00;;;16.00;;
4278;SDS011;2153;47.744;10.580;2024-02-28T00:57:34;41.03;;;18.20;;
4278;SDS011;2153;47.744;10.580;2024-02-28T01:00:01;39.73;;;16.60;;
4278;SDS011;2153;47.744;10.580;2024-02-28T01:02:31;32.23;;;16.73;;
4278;SDS011;2153;47.744;10.580;2024-02-28T01:04:58;35.50;;;17.30;;
4278;SDS011;2153;47.744;10.580;2024-02-28T01:07:26;32.17;;;15.97;;
4278;SDS011;2153;47.744;10.580;2024-02-28T01:09:53;38.10;;;18.90;;
4278;SDS011;2153;47.744;10.580;2024-02-28T01:12:20;42.13;;;18.70;;
4278;SDS011;2153;47.744;10.580;2024-02-28T01:14:47;34.07;;;16.23;;
4278;SDS011;2153;47.744;10.580;2024-02-28T01:17:14;35.07;;;17.80;;
4278;SDS011;2153;47.744;10.580;2024-02-28T01:19:42;33.53;;;16.93;;
4278;SDS011;2153;47.744;10.580;2024-02-28T01:22:09;38.57;;;17.70;;
4278;SDS011;2153;47.744;10.580;2024-02-28T01:24:36;41.97;;;18.57;;
4278;SDS011;2153;47.744;10.580;2024-02-28T01:27:03;31.80;;;16.63;;
4278;SDS011;2153;47.744;10.580;2024-02-28T01:29:30;40.10;;;18.40;;
4278;SDS011;2153;47.744;10.580;2024-02-28T01:31:57;37.33;;;18.40;;
4278;SDS011;2153;47.744;10.580;2024-02-28T01:34:24;36.27;;;16.90;;
4278;SDS011;2153;47.744;10.580;2024-02-28T01:36:53;35.70;;;17.37;;
4278;SDS011;2153;47.744;10.580;2024-02-28T01:39:20;44.00;;;17.73;;
4278;SDS011;2153;47.744;10.580;2024-02-28T01:41:50;36.77;;;17.83;;
4278;SDS011;2153;47.744;10.580;2024-02-28T01:44:17;38.13;;;17.77;;
4278;SDS011;2153;47.744;10.580;2024-02-28T01:46:44;35.93;;;17.03;;
4278;SDS011;2153;47.744;10.580;2024-02-28T01:49:12;43.20;;;19.17;;
4278;SDS011;2153;47.744;10.580;2024-02-28T01:51:40;36.77;;;17.97;;
4278;SDS011;2153;47.744;10.580;2024-02-28T01:54:09;34.50;;;16.73;;
4278;SDS011;2153;47.744;10.580;2024-02-28T01:56:36;38.30;;;17.67;;
4278;SDS011;2153;47.744;10.580;2024-02-28T01:59:05;39.40;;;16.67;;
4278;SDS011;2153;47.744;10.580;2024-02-28T02:01:32;39.53;;;17.77;;
4278;SDS011;2153;47.744;10.580;2024-02-28T02:03:59;41.10;;;18.37;;
4278;SDS011;2153;47.744;10.580;2024-02-28T02:06:26;34.13;;;16.30;;
4278;SDS011;2153;47.744;10.580;2024-02-28T02:08:53;38.83;;;17.60;;
4278;SDS011;2153;47.744;10.580;2024-02-28T02:11:22;33.53;;;16.27;;
4278;SDS011;2153;47.744;10.580;2024-02-28T02:13:50;36.20;;;17.73;;
4278;SDS011;2153;47.744;10.580;2024-02-28T02:16:18;34.93;;;16.77;;
4278;SDS011;2153;47.744;10.580;2024-02-28T02:18:47;37.50;;;17.43;;
4278;SDS011;2153;47.744;10.580;2024-02-28T02:21:15;37.10;;;17.60;;
4278;SDS011;2153;47.744;10.580;2024-02-28T02:23:45;38.67;;;16.50;;
4278;SDS011;2153;47.744;10.580;2024-02-28T02:26:12;37.33;;;18.07;;
4278;SDS011;2153;47.744;10.580;2024-02-28T02:28:39;34.57;;;18.00;;
4278;SDS011;2153;47.744;10.580;2024-02-28T02:31:06;35.80;;;16.90;;
4278;SDS011;2153;47.744;10.580;2024-02-28T02:33:33;36.57;;;17.57;;
4278;SDS011;2153;47.744;10.580;2024-02-28T02:36:00;36.60;;;16.27;;
4278;SDS011;2153;47.744;10.580;2024-02-28T02:38:27;36.03;;;17.20;;
4278;SDS011;2153;47.744;10.580;2024-02-28T02:40:56;36.73;;;18.70;;
4278;SDS011;2153;47.744;10.580;2024-02-28T02:43:23;38.93;;;18.13;;
4278;SDS011;2153;47.744;10.580;2024-02-28T02:45:50;37.03;;;18.17;;
4278;SDS011;2153;47.744;10.580;2024-02-28T02:48:17;38.50;;;18.30;;
4278;SDS011;2153;47.744;10.580;2024-02-28T02:50:44;36.60;;;17.23;;
4278;SDS011;2153;47.744;10.580;2024-02-28T02:53:11;39.87;;;17.33;;
4278;SDS011;2153;47.744;10.580;2024-02-28T02:55:38;39.30;;;17.57;;
4278;SDS011;2153;47.744;10.580;2024-02-28T02:58:06;44.43;;;18.43;;
4278;SDS011;2153;47.744;10.580;2024-02-28T03:00:33;34.37;;;16.70;;
4278;SDS011;2153;47.744;10.580;2024-02-28T03:03:00;41.00;;;18.97;;
4278;SDS011;2153;47.744;10.580;2024-02-28T03:05:27;32.70;;;16.90;;
4278;SDS011;2153;47.744;10.580;2024-02-28T03:07:54;34.23;;;17.07;;
4278;SDS011;2153;47.744;10.580;2024-02-28T03:10:21;34.87;;;16.67;;
4278;SDS011;2153;47.744;10.580;2024-02-28T03:12:48;36.27;;;17.93;;
4278;SDS011;2153;47.744;10.580;2024-02-28T03:15:17;36.40;;;16.40;;
4278;SDS011;2153;47.744;10.580;2024-02-28T03:17:44;33.03;;;17.90;;
4278;SDS011;2153;47.744;10.580;2024-02-28T03:20:11;38.97;;;18.87;;
4278;SDS011;2153;47.744;10.580;2024-02-28T03:22:39;34.10;;;17.00;;
4278;SDS011;2153;47.744;10.580;2024-02-28T03:25:07;33.07;;;16.77;;
4278;SDS011;2153;47.744;10.580;2024-02-28T03:27:34;34.50;;;17.00;;
4278;SDS011;2153;47.744;10.580;2024-02-28T03:30:01;37.33;;;16.33;;
4278;SDS011;2153;47.744;10.580;2024-02-28T03:32:29;36.90;;;16.60;;
4278;SDS011;2153;47.744;10.580;2024-02-28T03:34:56;40.73;;;17.60;;
4278;SDS011;2153;47.744;10.580;2024-02-28T03:37:23;39.40;;;17.40;;
4278;SDS011;2153;47.744;10.580;2024-02-28T03:39:52;38.23;;;17.90;;
4278;SDS011;2153;47.744;10.580;2024-02-28T03:42:19;34.60;;;18.00;;
4278;SDS011;2153;47.744;10.580;2024-02-28T03:44:46;40.33;;;18.10;;
4278;SDS011;2153;47.744;10.580;2024-02-28T03:47:13;36.50;;;17.00;;
4278;SDS011;2153;47.744;10.580;2024-02-28T03:49:41;37.60;;;18.10;;
4278;SDS011;2153;47.744;10.580;2024-02-28T03:52:09;35.23;;;17.30;;
4278;SDS011;2153;47.744;10.580;2024-02-28T03:54:36;35.40;;;17.80;;
4278;SDS011;2153;47.744;10.580;2024-02-28T03:57:03;36.90;;;16.83;;
4278;SDS011;2153;47.744;10.580;2024-02-28T03:59:30;36.73;;;16.97;;
4278;SDS011;2153;47.744;10.580;2024-02-28T04:01:57;39.47;;;18.43;;
4278;SDS011;2153;47.744;10.580;2024-02-28T04:04:24;34.40;;;18.07;;
4278;SDS011;2153;47.744;10.580;2024-02-28T04:06:52;35.07;;;18.00;;
4278;SDS011;2153;47.744;10.580;2024-02-28T04:09:19;35.00;;;18.13;;
4278;SDS011;2153;47.744;10.580;2024-02-28T04:11:46;37.80;;;18.03;;
4278;SDS011;2153;47.744;10.580;2024-02-28T04:14:13;33.40;;;17.03;;
4278;SDS011;2153;47.744;10.580;2024-02-28T04:16:41;35.77;;;16.70;;
4278;SDS011;2153;47.744;10.580;2024-02-28T04:19:09;35.40;;;16.17;;
4278;SDS011;2153;47.744;10.580;2024-02-28T04:21:36;35.20;;;18.33;;
4278;SDS011;2153;47.744;10.580;2024-02-28T04:24:05;36.87;;;16.60;;
4278;SDS011;2153;47.744;10.580;2024-02-28T04:26:32;35.10;;;16.20;;
4278;SDS011;2153;47.744;10.580;2024-02-28T04:29:00;37.37;;;17.70;;
4278;SDS011;2153;47.744;10.580;2024-02-28T04:31:28;35.80;;;18.17;;
4278;SDS011;2153;47.744;10.580;2024-02-28T04:33:55;38.93;;;18.73;;
4278;SDS011;2153;47.744;10.580;2024-02-28T04:36:22;36.17;;;17.27;;
4278;SDS011;2153;47.744;10.580;2024-02-28T04:38:49;40.60;;;20.37;;
4278;SDS011;2153;47.744;10.580;2024-02-28T04:41:18;42.27;;;19.30;;
4278;SDS011;2153;47.744;10.580;2024-02-28T04:43:45;36.57;;;18.00;;
4278;SDS011;2153;47.744;10.580;2024-02-28T04:46:12;37.70;;;17.13;;
4278;SDS011;2153;47.744;10.580;2024-02-28T04:48:39;36.37;;;17.57;;
4278;SDS011;2153;47.744;10.580;2024-02-28T04:51:06;38.13;;;17.83;;
4278;SDS011;2153;47.744;10.580;2024-02-28T04:53:33;37.43;;;18.23;;
4278;SDS011;2153;47.744;10.580;2024-02-28T04:56:00;36.70;;;18.03;;
4278;SDS011;2153;47.744;10.580;2024-02-28T04:58:28;37.70;;;17.43;;
4278;SDS011;2153;47.744;10.580;2024-02-28T05:00:55;32.90;;;17.00;;
4278;SDS011;2153;47.744;10.580;2024-02-28T05:03:22;34.97;;;17.00;;
4278;SDS011;2153;47.744;10.580;2024-02-28T05:05:49;32.57;;;17.47;;
4278;SDS011;2153;47.744;10.580;2024-02-28T05:08:17;32.70;;;17.40;;
4278;SDS011;2153;47.744;10.580;2024-02-28T05:10:44;34.63;;;18.07;;
4278;SDS011;2153;47.744;10.580;2024-02-28T05:13:11;34.40;;;18.00;;
4278;SDS011;2153;47.744;10.580;2024-02-28T05:15:39;35.93;;;16.87;;
4278;SDS011;2153;47.744;10.580;2024-02-28T05:18:06;39.60;;;18.67;;
4278;SDS011;2153;47.744;10.580;2024-02-28T05:20:33;35.43;;;18.33;;
4278;SDS011;2153;47.744;10.580;2024-02-28T05:23:00;40.37;;;19.07;;
4278;SDS011;2153;47.744;10.580;2024-02-28T05:25:27;39.63;;;19.90;;
4278;SDS011;2153;47.744;10.580;2024-02-28T05:27:54;38.17;;;18.47;;
4278;SDS011;2153;47.744;10.580;2024-02-28T05:30:21;40.70;;;19.03;;
4278;SDS011;2153;47.744;10.580;2024-02-28T05:32:49;37.83;;;17.80;;
4278;SDS011;2153;47.744;10.580;2024-02-28T05:35:16;35.90;;;18.30;;
4278;SDS011;2153;47.744;10.580;2024-02-28T05:37:44;40.40;;;20.30;;
4278;SDS011;2153;47.744;10.580;2024-02-28T05:40:11;51.80;;;22.37;;
4278;SDS011;2153;47.744;10.580;2024-02-28T05:42:38;52.00;;;24.30;;
4278;SDS011;2153;47.744;10.580;2024-02-28T05:45:06;42.37;;;21.80;;
4278;SDS011;2153;47.744;10.580;2024-02-28T05:47:33;51.33;;;24.30;;
4278;SDS011;2153;47.744;10.580;2024-02-28T05:50:02;47.27;;;22.77;;
4278;SDS011;2153;47.744;10.580;2024-02-28T05:52:30;38.73;;;19.30;;
4278;SDS011;2153;47.744;10.580;2024-02-28T05:54:57;44.13;;;19.13;;
4278;SDS011;2153;47.744;10.580;2024-02-28T05:57:24;46.50;;;19.93;;
4278;SDS011;2153;47.744;10.580;2024-02-28T05:59:51;41.20;;;20.93;;
4278;SDS011;2153;47.744;10.580;2024-02-28T06:02:18;37.57;;;17.83;;
4278;SDS011;2153;47.744;10.580;2024-02-28T06:04:45;40.40;;;19.50;;
4278;SDS011;2153;47.744;10.580;2024-02-28T06:07:13;39.97;;;18.50;;
4278;SDS011;2153;47.744;10.580;2024-02-28T06:09:40;43.57;;;19.27;;
4278;SDS011;2153;47.744;10.580;2024-02-28T06:12:07;35.70;;;17.93;;
4278;SDS011;2153;47.744;10.580;2024-02-28T06:14:34;35.27;;;17.03;;
4278;SDS011;2153;47.744;10.580;2024-02-28T06:17:02;39.53;;;20.00;;
4278;SDS011;2153;47.744;10.580;2024-02-28T06:19:29;38.77;;;20.50;;
4278;SDS011;2153;47.744;10.580;2024-02-28T06:21:56;42.20;;;20.67;;
4278;SDS011;2153;47.744;10.580;2024-02-28T06:24:24;41.47;;;21.63;;
4278;SDS011;2153;47.744;10.580;2024-02-28T06:26:51;44.13;;;21.13;;
4278;SDS011;2153;47.744;10.580;2024-02-28T06:29:19;63.50;;;24.40;;
4278;SDS011;2153;47.744;10.580;2024-02-28T06:31:49;63.43;;;24.20;;
4278;SDS011;2153;47.744;10.580;2024-02-28T06:34:16;61.17;;;24.67;;
4278;SDS011;2153;47.744;10.580;2024-02-28T06:36:44;56.90;;;22.57;;
4278;SDS011;2153;47.744;10.580;2024-02-28T06:39:11;85.83;;;28.83;;
4278;SDS011;2153;47.744;10.580;2024-02-28T06:41:40;80.03;;;27.10;;
4278;SDS011;2153;47.744;10.580;2024-02-28T06:44:07;88.43;;;28.67;;
4278;SDS011;2153;47.744;10.580;2024-02-28T06:46:34;90.30;;;28.93;;
4278;SDS011;2153;47.744;10.580;2024-02-28T06:49:01;104.87;;;30.73;;
4278;SDS011;2153;47.744;10.580;2024-02-28T06:51:29;89.47;;;28.80;;
4278;SDS011;2153;47.744;10.580;2024-02-28T06:53:56;72.90;;;26.60;;
4278;SDS011;2153;47.744;10.580;2024-02-28T06:56:23;91.43;;;27.93;;
4278;SDS011;2153;47.744;10.580;2024-02-28T06:58:51;81.87;;;28.80;;
4278;SDS011;2153;47.744;10.580;2024-02-28T07:01:18;91.37;;;30.53;;
4278;SDS011;2153;47.744;10.580;2024-02-28T07:03:45;94.73;;;32.47;;
4278;SDS011;2153;47.744;10.580;2024-02-28T07:06:13;102.40;;;29.67;;
4278;SDS011;2153;47.744;10.580;2024-02-28T07:08:39;106.60;;;32.37;;
4278;SDS011;2153;47.744;10.580;2024-02-28T07:11:12;105.00;;;28.80;;
4278;SDS011;2153;47.744;10.580;2024-02-28T07:13:39;104.17;;;32.20;;
4278;SDS011;2153;47.744;10.580;2024-02-28T07:16:07;101.00;;;30.57;;
4278;SDS011;2153;47.744;10.580;2024-02-28T07:18:34;99.80;;;30.00;;
4278;SDS011;2153;47.744;10.580;2024-02-28T07:21:02;121.53;;;33.70;;
4278;SDS011;2153;47.744;10.580;2024-02-28T07:23:31;98.73;;;32.20;;
4278;SDS011;2153;47.744;10.580;2024-02-28T07:25:58;90.90;;;33.63;;
4278;SDS011;2153;47.744;10.580;2024-02-28T07:28:25;96.17;;;30.37;;
4278;SDS011;2153;47.744;10.580;2024-02-28T07:30:52;109.30;;;32.20;;
4278;SDS011;2153;47.744;10.580;2024-02-28T07:33:21;137.27;;;35.97;;
4278;SDS011;2153;47.744;10.580;2024-02-28T07:35:48;119.80;;;34.20;;
4278;SDS011;2153;47.744;10.580;2024-02-28T07:38:15;106.93;;;35.80;;
4278;SDS011;2153;47.744;10.580;2024-02-28T07:40:45;109.93;;;35.40;;
4278;SDS011;2153;47.744;10.580;2024-02-28T07:43:12;103.97;;;37.90;;
4278;SDS011;2153;47.744;10.580;2024-02-28T07:45:39;111.87;;;36.00;;
4278;SDS011;2153;47.744;10.580;2024-02-28T07:48:06;114.47;;;34.60;;
4278;SDS011;2153;47.744;10.580;2024-02-28T07:50:34;105.07;;;35.23;;
4278;SDS011;2153;47.744;10.580;2024-02-28T07:53:03;93.20;;;34.50;;
4278;SDS011;2153;47.744;10.580;2024-02-28T07:55:30;122.87;;;37.27;;
4278;SDS011;2153;47.744;10.580;2024-02-28T07:57:58;99.93;;;35.83;;
4278;SDS011;2153;47.744;10.580;2024-02-28T08:00:25;99.53;;;35.03;;
4278;SDS011;2153;47.744;10.580;2024-02-28T08:02:52;117.03;;;35.13;;
4278;SDS011;2153;47.744;10.580;2024-02-28T08:05:19;130.20;;;32.47;;
4278;SDS011;2153;47.744;10.580;2024-02-28T08:07:47;210.70;;;39.03;;
4278;SDS011;2153;47.744;10.580;2024-02-28T08:10:14;88.90;;;33.03;;
4278;SDS011;2153;47.744;10.580;2024-02-28T08:12:41;88.27;;;34.17;;
4278;SDS011;2153;47.744;10.580;2024-02-28T08:15:09;89.07;;;34.87;;
4278;SDS011;2153;47.744;10.580;2024-02-28T08:17:36;86.53;;;33.00;;
4278;SDS011;2153;47.744;10.580;2024-02-28T08:20:03;120.07;;;33.67;;
4278;SDS011;2153;47.744;10.580;2024-02-28T08:22:30;93.17;;;34.63;;
4278;SDS011;2153;47.744;10.580;2024-02-28T08:25:00;100.13;;;35.87;;
4278;SDS011;2153;47.744;10.580;2024-02-28T08:27:27;85.17;;;34.33;;
4278;SDS011;2153;47.744;10.580;2024-02-28T08:29:54;80.40;;;34.20;;
4278;SDS011;2153;47.744;10.580;2024-02-28T08:32:21;81.10;;;33.93;;
4278;SDS011;2153;47.744;10.580;2024-02-28T08:34:48;82.27;;;33.80;;
4278;SDS011;2153;47.744;10.580;2024-02-28T08:37:15;91.53;;;36.50;;
4278;SDS011;2153;47.744;10.580;2024-02-28T08:39:43;91.13;;;33.30;;
4278;SDS011;2153;47.744;10.580;2024-02-28T08:42:11;93.47;;;35.47;;
4278;SDS011;2153;47.744;10.580;2024-02-28T08:44:38;99.30;;;35.27;;
4278;SDS011;2153;47.744;10.580;2024-02-28T08:47:05;93.43;;;33.40;;
4278;SDS011;2153;47.744;10.580;2024-02-28T08:49:34;99.40;;;32.73;;
4278;SDS011;2153;47.744;10.580;2024-02-28T08:52:01;134.07;;;34.77;;
4278;SDS011;2153;47.744;10.580;2024-02-28T08:54:28;105.67;;;35.93;;
4278;SDS011;2153;47.744;10.580;2024-02-28T08:56:55;83.57;;;32.60;;
4278;SDS011;2153;47.744;10.580;2024-02-28T08:59:23;108.10;;;35.80;;
4278;SDS011;2153;47.744;10.580;2024-02-28T09:01:50;109.53;;;35.23;;
4278;SDS011;2153;47.744;10.580;2024-02-28T09:04:17;104.50;;;36.00;;
4278;SDS011;2153;47.744;10.580;2024-02-28T09:06:44;100.30;;;36.63;;
4278;SDS011;2153;47.744;10.580;2024-02-28T09:09:11;113.53;;;36.80;;
4278;SDS011;2153;47.744;10.580;2024-02-28T09:11:39;93.50;;;35.70;;
4278;SDS011;2153;47.744;10.580;2024-02-28T09:14:06;105.07;;;38.27;;
4278;SDS011;2153;47.744;10.580;2024-02-28T09:16:35;111.53;;;35.63;;
4278;SDS011;2153;47.744;10.580;2024-02-28T09:19:02;104.60;;;38.93;;
4278;SDS011;2153;47.744;10.580;2024-02-28T09:21:29;101.03;;;36.93;;
4278;SDS011;2153;47.744;10.580;2024-02-28T09:23:56;103.93;;;36.40;;
4278;SDS011;2153;47.744;10.580;2024-02-28T09:26:23;114.63;;;37.30;;
4278;SDS011;2153;47.744;10.580;2024-02-28T09:28:50;122.30;;;37.80;;
4278;SDS011;2153;47.744;10.580;2024-02-28T09:31:17;122.53;;;35.73;;
4278;SDS011;2153;47.744;10.580;2024-02-28T09:33:46;100.43;;;36.83;;
4278;SDS011;2153;47.744;10.580;2024-02-28T09:36:13;97.43;;;34.87;;
4278;SDS011;2153;47.744;10.580;2024-02-28T09:38:41;100.77;;;36.90;;
4278;SDS011;2153;47.744;10.580;2024-02-28T09:41:09;95.03;;;37.47;;
4278;SDS011;2153;47.744;10.580;2024-02-28T09:43:41;100.20;;;35.17;;
4278;SDS011;2153;47.744;10.580;2024-02-28T09:46:08;108.20;;;34.70;;
4278;SDS011;2153;47.744;10.580;2024-02-28T09:48:37;100.20;;;36.30;;
4278;SDS011;2153;47.744;10.580;2024-02-28T09:51:06;94.70;;;33.83;;
4278;SDS011;2153;47.744;10.580;2024-02-28T09:53:35;94.17;;;33.63;;
4278;SDS011;2153;47.744;10.580;2024-02-28T09:56:02;87.70;;;34.87;;
4278;SDS011;2153;47.744;10.580;2024-02-28T09:58:29;101.37;;;35.57;;
4278;SDS011;2153;47.744;10.580;2024-02-28T10:00:59;88.33;;;32.83;;
4278;SDS011;2153;47.744;10.580;2024-02-28T10:03:26;82.63;;;32.93;;
4278;SDS011;2153;47.744;10.580;2024-02-28T10:05:54;89.63;;;34.10;;
4278;SDS011;2153;47.744;10.580;2024-02-28T10:08:22;87.17;;;32.73;;
4278;SDS011;2153;47.744;10.580;2024-02-28T10:10:49;88.13;;;33.43;;
4278;SDS011;2153;47.744;10.580;2024-02-28T10:13:19;91.13;;;33.63;;
4278;SDS011;2153;47.744;10.580;2024-02-28T10:15:47;98.40;;;33.17;;
4278;SDS011;2153;47.744;10.580;2024-02-28T10:18:14;87.00;;;36.97;;
4278;SDS011;2153;47.744;10.580;2024-02-28T10:20:41;84.60;;;32.13;;
4278;SDS011;2153;47.744;10.580;2024-02-28T10:23:08;95.63;;;33.70;;
4278;SDS011;2153;47.744;10.580;2024-02-28T10:25:42;89.63;;;32.47;;
4278;SDS011;2153;47.744;10.580;2024-02-28T10:28:10;69.97;;;28.17;;
4278;SDS011;2153;47.744;10.580;2024-02-28T10:30:38;85.10;;;31.80;;
4278;SDS011;2153;47.744;10.580;2024-02-28T10:33:11;75.87;;;30.90;;
4278;SDS011;2153;47.744;10.580;2024-02-28T10:35:39;80.20;;;31.50;;
4278;SDS011;2153;47.744;10.580;2024-02-28T10:38:07;69.63;;;29.53;;
4278;SDS011;2153;47.744;10.580;2024-02-28T10:40:36;77.30;;;31.00;;
4278;SDS011;2153;47.744;10.580;2024-02-28T10:43:05;65.10;;;27.97;;
4278;SDS011;2153;47.744;10.580;2024-02-28T10:45:34;79.43;;;28.60;;
4278;SDS011;2153;47.744;10.580;2024-02-28T10:48:02;67.07;;;27.87;;
4278;SDS011;2153;47.744;10.580;2024-02-28T10:50:30;80.37;;;29.07;;
4278;SDS011;2153;47.744;10.580;2024-02-28T10:52:58;78.90;;;32.30;;
4278;SDS011;2153;47.744;10.580;2024-02-28T10:55:27;86.47;;;31.33;;
4278;SDS011;2153;47.744;10.580;2024-02-28T10:57:58;82.53;;;32.43;;
4278;SDS011;2153;47.744;10.580;2024-02-28T11:00:30;81.03;;;33.00;;
4278;SDS011;2153;47.744;10.580;2024-02-28T11:02:57;79.90;;;31.60;;
4278;SDS011;2153;47.744;10.580;2024-02-28T11:05:34;79.90;;;31.77;;
4278;SDS011;2153;47.744;10.580;2024-02-28T11:08:01;80.70;;;30.77;;
4278;SDS011;2153;47.744;10.580;2024-02-28T11:10:30;88.50;;;32.00;;
4278;SDS011;2153;47.744;10.580;2024-02-28T11:12:59;82.20;;;32.37;;
4278;SDS011;2153;47.744;10.580;2024-02-28T11:15:26;78.93;;;30.90;;
4278;SDS011;2153;47.744;10.580;2024-02-28T11:17:54;80.27;;;31.87;;
4278;SDS011;2153;47.744;10.580;2024-02-28T11:20:22;70.23;;;29.03;;
4278;SDS011;2153;47.744;10.580;2024-02-28T11:22:55;72.90;;;30.07;;
4278;SDS011;2153;47.744;10.580;2024-02-28T11:25:23;75.60;;;32.17;;
4278;SDS011;2153;47.744;10.580;2024-02-28T11:27:50;77.80;;;29.30;;
4278;SDS011;2153;47.744;10.580;2024-02-28T11:30:17;67.27;;;27.70;;
4278;SDS011;2153;47.744;10.580;2024-02-28T11:32:45;70.90;;;27.83;;
4278;SDS011;2153;47.744;10.580;2024-02-28T11:35:13;77.80;;;32.80;;
4278;SDS011;2153;47.744;10.580;2024-02-28T11:37:40;80.07;;;32.60;;
4278;SDS011;2153;47.744;10.580;2024-02-28T11:40:07;93.73;;;44.50;;
4278;SDS011;2153;47.744;10.580;2024-02-28T11:42:37;76.33;;;30.17;;
4278;SDS011;2153;47.744;10.580;2024-02-28T11:45:05;68.60;;;30.27;;
4278;SDS011;2153;47.744;10.580;2024-02-28T11:47:32;75.03;;;32.63;;
4278;SDS011;2153;47.744;10.580;2024-02-28T11:49:59;69.60;;;30.83;;
4278;SDS011;2153;47.744;10.580;2024-02-28T11:52:28;77.60;;;33.20;;
4278;SDS011;2153;47.744;10.580;2024-02-28T11:54:55;73.90;;;31.70;;
4278;SDS011;2153;47.744;10.580;2024-02-28T11:57:22;82.80;;;32.47;;
4278;SDS011;2153;47.744;10.580;2024-02-28T11:59:49;75.10;;;30.93;;
4278;SDS011;2153;47.744;10.580;2024-02-28T12:02:16;79.03;;;31.37;;
4278;SDS011;2153;47.744;10.580;2024-02-28T12:04:44;75.47;;;32.80;;
4278;SDS011;2153;47.744;10.580;2024-02-28T12:07:15;69.10;;;30.40;;
4278;SDS011;2153;47.744;10.580;2024-02-28T12:09:43;69.00;;;30.57;;
4278;SDS011;2153;47.744;10.580;2024-02-28T12:12:11;71.03;;;30.90;;
4278;SDS011;2153;47.744;10.580;2024-02-28T12:14:38;72.37;;;32.77;;
4278;SDS011;2153;47.744;10.580;2024-02-28T12:17:07;71.37;;;30.80;;
4278;SDS011;2153;47.744;10.580;2024-02-28T12:19:35;81.80;;;31.40;;
4278;SDS011;2153;47.744;10.580;2024-02-28T12:22:02;88.83;;;32.70;;
4278;SDS011;2153;47.744;10.580;2024-02-28T12:24:29;71.97;;;31.10;;
4278;SDS011;2153;47.744;10.580;2024-02-28T12:26:57;72.60;;;29.67;;
4278;SDS011;2153;47.744;10.580;2024-02-28T12:29:24;76.37;;;30.57;;
4278;SDS011;2153;47.744;10.580;2024-02-28T12:31:51;72.70;;;31.53;;
4278;SDS011;2153;47.744;10.580;2024-02-28T12:34:18;70.53;;;28.87;;
4278;SDS011;2153;47.744;10.580;2024-02-28T12:36:46;82.23;;;31.50;;
4278;SDS011;2153;47.744;10.580;2024-02-28T12:39:13;76.77;;;32.27;;
4278;SDS011;2153;47.744;10.580;2024-02-28T12:41:40;80.90;;;34.23;;
4278;SDS011;2153;47.744;10.580;2024-02-28T12:44:08;73.27;;;31.40;;
4278;SDS011;2153;47.744;10.580;2024-02-28T12:46:36;68.73;;;30.73;;
4278;SDS011;2153;47.744;10.580;2024-02-28T12:49:03;75.70;;;32.47;;
4278;SDS011;2153;47.744;10.580;2024-02-28T12:51:36;82.27;;;33.93;;
4278;SDS011;2153;47.744;10.580;2024-02-28T12:54:04;70.63;;;32.00;;
4278;SDS011;2153;47.744;10.580;2024-02-28T12:56:31;80.30;;;33.03;;
4278;SDS011;2153;47.744;10.580;2024-02-28T12:58:58;69.53;;;31.17;;
4278;SDS011;2153;47.744;10.580;2024-02-28T13:01:26;71.27;;;31.30;;
4278;SDS011;2153;47.744;10.580;2024-02-28T13:03:54;67.10;;;29.87;;
4278;SDS011;2153;47.744;10.580;2024-02-28T13:06:21;69.03;;;30.57;;
4278;SDS011;2153;47.744;10.580;2024-02-28T13:08:48;85.13;;;39.43;;
4278;SDS011;2153;47.744;10.580;2024-02-28T13:11:17;73.60;;;31.47;;
4278;SDS011;2153;47.744;10.580;2024-02-28T13:13:44;69.87;;;32.00;;
4278;SDS011;2153;47.744;10.580;2024-02-28T13:16:11;76.90;;;31.77;;
4278;SDS011;2153;47.744;10.580;2024-02-28T13:18:40;66.33;;;30.27;;
4278;SDS011;2153;47.744;10.580;2024-02-28T13:21:07;71.67;;;31.80;;
4278;SDS011;2153;47.744;10.580;2024-02-28T13:23:34;79.53;;;32.40;;
4278;SDS011;2153;47.744;10.580;2024-02-28T13:26:02;70.50;;;32.70;;
4278;SDS011;2153;47.744;10.580;2024-02-28T13:28:29;71.10;;;32.30;;
4278;SDS011;2153;47.744;10.580;2024-02-28T13:30:56;78.50;;;33.73;;
4278;SDS011;2153;47.744;10.580;2024-02-28T13:33:23;65.80;;;30.57;;
4278;SDS011;2153;47.744;10.580;2024-02-28T13:35:52;82.53;;;35.67;;
4278;SDS011;2153;47.744;10.580;2024-02-28T13:38:20;78.73;;;33.60;;
4278;SDS011;2153;47.744;10.580;2024-02-28T13:40:47;78.17;;;32.47;;
4278;SDS011;2153;47.744;10.580;2024-02-28T13:43:14;78.40;;;34.13;;
4278;SDS011;2153;47.744;10.580;2024-02-28T13:45:45;72.50;;;31.97;;
4278;SDS011;2153;47.744;10.580;2024-02-28T13:48:14;71.73;;;31.57;;
4278;SDS011;2153;47.744;10.580;2024-02-28T13:50:42;71.93;;;32.30;;
4278;SDS011;2153;47.744;10.580;2024-02-28T13:53:10;74.53;;;35.60;;
4278;SDS011;2153;47.744;10.580;2024-02-28T13:55:37;68.53;;;30.30;;
4278;SDS011;2153;47.744;10.580;2024-02-28T13:58:04;71.57;;;32.67;;
4278;SDS011;2153;47.744;10.580;2024-02-28T14:00:33;72.10;;;33.20;;
4278;SDS011;2153;47.744;10.580;2024-02-28T14:03:00;68.00;;;30.63;;
4278;SDS011;2153;47.744;10.580;2024-02-28T14:05:27;75.30;;;32.53;;
4278;SDS011;2153;47.744;10.580;2024-02-28T14:07:54;78.93;;;33.40;;
4278;SDS011;2153;47.744;10.580;2024-02-28T14:10:23;82.23;;;32.20;;
4278;SDS011;2153;47.744;10.580;2024-02-28T14:12:50;79.10;;;34.67;;
4278;SDS011;2153;47.744;10.580;2024-02-28T14:15:18;85.30;;;33.70;;
4278;SDS011;2153;47.744;10.580;2024-02-28T14:17:45;96.80;;;36.87;;
4278;SDS011;2153;47.744;10.580;2024-02-28T14:20:11;89.13;;;37.37;;
4278;SDS011;2153;47.744;10.580;2024-02-28T14:22:39;99.37;;;36.87;;
4278;SDS011;2153;47.744;10.580;2024-02-28T14:25:07;92.13;;;36.93;;
4278;SDS011;2153;47.744;10.580;2024-02-28T14:27:35;85.20;;;35.73;;
4278;SDS011;2153;47.744;10.580;2024-02-28T14:30:02;92.70;;;36.23;;
4278;SDS011;2153;47.744;10.580;2024-02-28T14:32:32;94.60;;;37.80;;
4278;SDS011;2153;47.744;10.580;2024-02-28T14:35:00;106.60;;;37.10;;